Time;durP1;ratioP1;P1;durP2;ratioP2;P2;SDS_P1;SDS_P2;PMS_P1;PMS_P2;Temp;Humidity;BMP_temperature;BMP_pressure;BME280_temperature;BME280_humidity;BME280_pressure;Samples;Min_cycle;Max_cycle;Signal;HPM_P1;HPM_P2
2021/06/02 00:00:10;;;;;;;7.22;4.90;;;;;;;11.21;100.00;101033.59;1734579;82;21003;-75
2021/06/02 00:02:45;;;;;;;7.40;4.83;;;;;;;11.21;100.00;101034.05;1734303;82;21154;-71
2021/06/02 00:05:13;;;;;;;8.43;4.95;;;;;;;11.21;100.00;101031.00;1734446;82;20995;-74
2021/06/02 00:07:43;;;;;;;6.50;4.62;;;;;;;11.21;100.00;101027.56;1734761;82;21663;-70
2021/06/02 00:10:12;;;;;;;6.78;4.42;;;;;;;11.23;100.00;101027.83;1734559;82;20972;-70
2021/06/02 00:12:41;;;;;;;8.13;4.78;;;;;;;11.25;100.00;101025.98;1734755;82;21550;-73
2021/06/02 00:15:09;;;;;;;6.50;4.28;;;;;;;11.27;100.00;101027.17;1727547;82;21407;-70
2021/06/02 00:17:37;;;;;;;7.40;4.60;;;;;;;11.26;100.00;101021.17;1726761;83;20901;-71
2021/06/02 00:20:08;;;;;;;5.85;4.40;;;;;;;11.28;100.00;101021.89;1727103;83;21862;-70
2021/06/02 00:22:37;;;;;;;6.97;4.50;;;;;;;11.29;100.00;101018.83;1727664;83;21554;-70
2021/06/02 00:25:07;;;;;;;9.80;5.00;;;;;;;11.31;100.00;101016.50;1727052;83;21388;-71
2021/06/02 00:27:35;;;;;;;7.90;4.40;;;;;;;11.31;100.00;101013.06;1726817;83;20956;-75
2021/06/02 00:30:05;;;;;;;6.53;5.22;;;;;;;11.32;100.00;101012.14;1726997;83;20995;-79
2021/06/02 00:32:33;;;;;;;5.83;4.90;;;;;;;11.33;100.00;101015.09;1727079;83;21117;-74
2021/06/02 00:35:04;;;;;;;8.65;4.35;;;;;;;11.33;100.00;101018.98;1726722;83;21609;-71
2021/06/02 00:37:31;;;;;;;8.55;4.35;;;;;;;11.33;100.00;101020.28;1726906;83;20969;-70
2021/06/02 00:39:58;;;;;;;10.53;4.25;;;;;;;11.31;100.00;101020.40;1726597;83;21656;-70
2021/06/02 00:42:29;;;;;;;7.30;4.30;;;;;;;11.31;100.00;101023.00;1726775;83;21059;-70
2021/06/02 00:44:56;;;;;;;7.65;4.08;;;;;;;11.31;100.00;101020.40;1696596;84;21056;-72
2021/06/02 00:47:25;;;;;;;9.43;4.97;;;;;;;11.32;100.00;101021.23;1696527;84;21808;-74
2021/06/02 00:49:52;;;;;;;5.65;4.30;;;;;;;11.32;100.00;101027.27;1696897;84;21490;-75
2021/06/02 00:52:19;;;;;;;11.57;4.60;;;;;;;11.33;100.00;101019.83;1726587;83;21534;-72
2021/06/02 00:54:46;;;;;;;5.70;4.30;;;;;;;11.31;100.00;101020.40;1726918;83;20957;-75
2021/06/02 00:57:19;;;;;;;6.70;4.30;;;;;;;11.30;100.00;101017.42;1726665;83;21181;-71
2021/06/02 01:00:09;;;;;;;8.68;4.65;;;;;;;11.30;100.00;101021.78;1726754;83;20897;-69
2021/06/02 01:02:37;;;;;;;7.47;4.80;;;;;;;11.29;100.00;101015.78;1698534;83;21015;-73
2021/06/02 01:05:05;;;;;;;5.30;4.35;;;;;;;11.27;100.00;101009.83;1726818;83;21064;-73
2021/06/02 01:07:36;;;;;;;7.60;4.92;;;;;;;11.27;100.00;101015.48;1726835;83;21059;-74
2021/06/02 01:10:05;;;;;;;11.10;5.33;;;;;;;11.27;100.00;101016.31;1726931;83;21016;-70
2021/06/02 01:12:33;;;;;;;7.78;4.58;;;;;;;11.26;100.00;101019.87;1726963;83;20960;-75
2021/06/02 01:15:01;;;;;;;6.65;4.53;;;;;;;11.27;100.00;101018.91;1731543;82;20984;-69
2021/06/02 01:17:31;;;;;;;6.37;4.33;;;;;;;11.27;100.00;101017.62;1733144;82;21449;-71
2021/06/02 01:20:00;;;;;;;8.40;3.95;;;;;;;11.27;100.00;101016.78;1733034;81;21506;-71
2021/06/02 01:22:30;;;;;;;8.15;4.83;;;;;;;11.27;100.00;101018.91;1733030;82;21654;-72
2021/06/02 01:24:57;;;;;;;7.50;4.50;;;;;;;11.26;100.00;101015.13;1733204;82;20872;-71
2021/06/02 01:27:24;;;;;;;7.20;4.90;;;;;;;11.24;100.00;101013.08;1733265;82;20872;-72
2021/06/02 01:29:51;;;;;;;7.95;4.45;;;;;;;11.23;100.00;101013.53;1733202;82;21091;-71
2021/06/02 01:32:50;;;;;;;9.08;4.95;;;;;;;11.23;100.00;101012.73;1733449;82;21589;-71
2021/06/02 01:35:49;;;;;;;10.68;4.47;;;;;;;11.23;100.00;101020.52;1732747;82;21063;-73
2021/06/02 01:38:37;;;;;;;7.70;4.75;;;;;;;11.19;100.00;101014.69;1728167;82;20901;-69
2021/06/02 01:41:34;;;;;;;6.67;4.55;;;;;;;11.14;100.00;101008.92;1675558;83;20992;-71
2021/06/02 01:44:18;;;;;;;6.40;4.10;;;;;;;11.09;100.00;101004.04;1735036;82;21665;-74
2021/06/02 01:47:14;;;;;;;8.03;4.20;;;;;;;11.07;100.00;101010.27;1735584;82;20980;-75
2021/06/02 01:50:23;;;;;;;7.90;4.22;;;;;;;11.03;100.00;101008.32;1728331;82;21502;-71
2021/06/02 01:53:30;;;;;;;7.75;4.25;;;;;;;10.98;100.00;101005.16;1728250;83;21609;-72
2021/06/02 01:56:42;;;;;;;5.30;3.70;;;;;;;10.98;100.00;101010.80;1728275;83;21019;-76
2021/06/02 01:59:50;;;;;;;5.90;3.87;;;;;;;10.96;100.00;101005.73;1727269;83;21083;-72
2021/06/02 02:02:31;;;;;;;7.20;4.03;;;;;;;10.95;100.00;101005.34;1728088;83;20917;-71
2021/06/02 02:05:29;;;;;;;9.83;3.80;;;;;;;10.93;100.00;101008.52;1728044;83;21109;-71
2021/06/02 02:08:30;;;;;;;8.05;3.83;;;;;;;10.93;100.00;101007.22;1728113;83;20909;-72
2021/06/02 02:11:22;;;;;;;8.00;3.85;;;;;;;10.93;100.00;101008.52;1728230;83;21068;-70
2021/06/02 02:14:34;;;;;;;5.65;3.55;;;;;;;10.94;100.00;101008.89;1727612;81;20971;-71
2021/06/02 02:17:15;;;;;;;24.52;3.77;;;;;;;10.95;100.00;101008.41;1722179;83;20988;-75
2021/06/02 02:20:06;;;;;;;8.63;3.85;;;;;;;10.95;100.00;101008.41;1722119;83;21089;-73
2021/06/02 02:23:04;;;;;;;4.85;3.62;;;;;;;10.94;100.00;101006.30;1709536;83;20980;-74
2021/06/02 02:25:58;;;;;;;5.53;3.27;;;;;;;10.94;100.00;101018.44;1721940;83;20956;-70
2021/06/02 02:28:46;;;;;;;9.78;3.45;;;;;;;10.94;100.00;101019.28;1721652;83;21121;-69
2021/06/02 02:31:40;;;;;;;5.67;3.70;;;;;;;10.94;100.00;101018.44;1722001;83;20980;-71
2021/06/02 02:34:19;;;;;;;6.87;3.67;;;;;;;10.92;100.00;101017.22;1721640;83;21163;-75
2021/06/02 02:37:00;;;;;;;7.60;3.47;;;;;;;10.90;100.00;101019.55;1721913;83;20885;-71
2021/06/02 02:39:51;;;;;;;4.12;3.22;;;;;;;10.87;100.00;101019.28;1721597;83;20928;-72
2021/06/02 02:42:45;;;;;;;5.67;3.35;;;;;;;10.85;100.00;101021.12;1719766;83;21581;-70
2021/06/02 02:45:32;;;;;;;6.23;3.47;;;;;;;10.79;100.00;101022.80;1722229;83;21032;-68
2021/06/02 02:48:38;;;;;;;6.22;3.70;;;;;;;10.79;100.00;101022.80;1721449;83;21653;-67
2021/06/02 02:51:13;;;;;;;7.50;3.60;;;;;;;10.77;100.00;101018.17;1721782;83;21004;-69
2021/06/02 02:53:59;;;;;;;5.35;3.12;;;;;;;10.75;100.00;101023.09;1721668;83;20928;-69
2021/06/02 02:56:52;;;;;;;7.40;3.95;;;;;;;10.74;100.00;101024.01;1721738;83;20928;-72
2021/06/02 02:59:27;;;;;;;4.80;3.37;;;;;;;10.74;100.00;101035.69;1721647;83;21016;-72
2021/06/02 03:02:03;;;;;;;9.50;3.30;;;;;;;10.70;100.00;101025.95;1721924;83;21077;-74
2021/06/02 03:04:40;;;;;;;4.15;3.05;;;;;;;10.68;100.00;101025.22;1721774;83;21003;-69
2021/06/02 03:07:07;;;;;;;5.92;3.40;;;;;;;10.66;100.00;101028.84;1721288;82;21003;-71
2021/06/02 03:09:51;;;;;;;7.30;3.70;;;;;;;10.63;100.00;101031.98;1721924;83;21016;-73
2021/06/02 03:12:44;;;;;;;4.28;3.70;;;;;;;10.65;100.00;101034.95;1722145;83;21060;-73
2021/06/02 03:15:32;;;;;;;;;;;;;;;10.65;100.00;101029.30;1724369;83;21087;-71
2021/06/02 03:18:23;;;;;;;6.47;3.42;;;;;;;10.65;100.00;101032.36;1721741;83;20757;-69
2021/06/02 03:21:04;;;;;;;4.80;3.10;;;;;;;10.60;100.00;101031.33;1721836;83;20976;-71
2021/06/02 03:24:09;;;;;;;7.60;3.10;;;;;;;10.60;100.00;101041.70;1721634;83;20996;-77
2021/06/02 03:26:58;;;;;;;5.35;3.00;;;;;;;10.60;100.00;101041.25;1721714;83;21614;-74
2021/06/02 03:29:55;;;;;;;5.00;3.70;;;;;;;10.60;100.00;101039.11;1721603;83;21863;-68
2021/06/02 03:33:11;;;;;;;5.08;3.35;;;;;;;10.58;100.00;101045.70;1719988;82;20920;-72
2021/06/02 03:36:02;;;;;;;5.08;3.65;;;;;;;10.56;100.00;101040.24;1721896;83;20956;-74
2021/06/02 03:38:56;;;;;;;7.33;3.75;;;;;;;10.53;100.00;101041.23;1721990;83;20960;-74
2021/06/02 03:41:58;;;;;;;6.22;3.77;;;;;;;10.52;100.00;101045.23;1721750;83;20941;-72
2021/06/02 03:45:05;;;;;;;6.50;3.30;;;;;;;10.54;100.00;101045.97;1721740;83;21034;-76
2021/06/02 03:47:45;;;;;;;9.65;4.05;;;;;;;10.54;100.00;101041.61;1721729;83;20889;-73
2021/06/02 03:50:28;;;;;;;6.40;3.22;;;;;;;10.58;100.00;101046.16;1721713;83;21060;-69
2021/06/02 03:53:25;;;;;;;6.90;3.80;;;;;;;10.60;100.00;101043.84;1721838;83;21118;-75
2021/06/02 03:55:57;;;;;;;5.40;3.33;;;;;;;10.62;100.00;101038.08;1651599;83;21068;-72
2021/06/02 03:58:41;;;;;;;6.58;3.25;;;;;;;10.66;100.00;101043.13;1713748;83;21106;-72
2021/06/02 04:01:32;;;;;;;9.28;3.75;;;;;;;10.68;100.00;101041.26;1721563;83;21474;-70
2021/06/02 04:04:46;;;;;;;4.20;3.00;;;;;;;10.70;100.00;101043.28;1721967;83;20999;-70
2021/06/02 04:07:21;;;;;;;6.95;3.10;;;;;;;10.70;100.00;101051.91;1680156;85;21050;-73
2021/06/02 04:10:07;;;;;;;4.67;3.35;;;;;;;10.70;100.00;101057.10;1673314;85;20903;-73
2021/06/02 04:12:51;;;;;;;8.00;3.05;;;;;;;10.70;100.00;101059.70;1696561;83;21035;-72
2021/06/02 04:15:18;;;;;;;4.67;3.22;;;;;;;10.68;100.00;101057.67;1716377;82;20948;-73
2021/06/02 04:17:49;;;;;;;5.40;3.10;;;;;;;10.65;100.00;101054.42;1716449;83;20945;-75
2021/06/02 04:20:18;;;;;;;5.80;3.17;;;;;;;10.54;100.00;101055.89;1717054;83;20996;-75
2021/06/02 04:22:49;;;;;;;4.40;3.20;;;;;;;10.42;100.00;101054.03;1716931;83;20932;-72
2021/06/02 04:25:18;;;;;;;4.80;2.90;;;;;;;10.37;100.00;101058.63;1716862;83;21582;-72
2021/06/02 04:27:47;;;;;;;5.28;2.75;;;;;;;10.34;100.00;101058.81;1716443;83;20898;-70
2021/06/02 04:30:16;;;;;;;8.80;3.42;;;;;;;10.37;100.00;101053.94;1716743;83;20933;-71
2021/06/02 04:32:47;;;;;;;5.60;2.90;;;;;;;10.40;100.00;101059.75;1716602;83;20929;-72
2021/06/02 04:35:17;;;;;;;3.58;2.70;;;;;;;10.45;100.00;101059.03;1716840;83;21032;-73
2021/06/02 04:37:47;;;;;;;6.67;3.52;;;;;;;10.47;100.00;101057.17;1716953;83;21088;-76
2021/06/02 04:40:14;;;;;;;4.22;2.92;;;;;;;10.51;100.00;101058.67;1716804;83;20914;-75
2021/06/02 04:42:41;;;;;;;5.62;3.33;;;;;;;10.52;100.00;101061.64;1716767;83;21608;-76
2021/06/02 04:45:15;;;;;;;5.80;3.75;;;;;;;10.54;100.00;101066.73;1716812;83;21036;-76
2021/06/02 04:47:44;;;;;;;4.45;3.22;;;;;;;10.54;100.00;101062.83;1716528;83;21501;-76
2021/06/02 04:50:29;;;;;;;17.02;3.30;;;;;;;10.55;100.00;101064.05;1716476;83;21066;-72
2021/06/02 04:53:44;;;;;;;7.28;3.60;;;;;;;10.57;100.00;101059.59;1716025;83;20961;-74
2021/06/02 04:56:46;;;;;;;4.80;3.00;;;;;;;10.61;100.00;101060.25;1716791;83;21590;-74
2021/06/02 04:59:54;;;;;;;7.05;4.00;;;;;;;10.66;100.00;101065.98;1716597;83;20984;-75
2021/06/02 05:03:13;;;;;;;4.00;3.00;;;;;;;10.72;100.00;101068.70;1715676;83;21060;-71
2021/06/02 05:06:12;;;;;;;5.87;3.52;;;;;;;10.77;100.00;101073.14;1716546;83;21766;-69
2021/06/02 05:09:05;;;;;;;5.47;3.70;;;;;;;10.81;100.00;101074.17;1716082;83;21588;-70
2021/06/02 05:12:12;;;;;;;4.87;3.35;;;;;;;10.90;100.00;101075.38;1716663;83;21020;-71
2021/06/02 05:14:54;;;;;;;4.33;3.33;;;;;;;10.96;100.00;101075.00;1717688;82;21008;-73
2021/06/02 05:17:45;;;;;;;6.87;3.40;;;;;;;11.04;100.00;101076.68;1733589;81;20964;-74
2021/06/02 05:23:31;;;;;;;4.20;3.35;;;;;;;11.22;100.00;101077.30;1707847;83;20979;-75
2021/06/02 05:26:36;;;;;;;5.67;3.15;;;;;;;11.31;100.00;101074.96;1728287;83;20861;-77
2021/06/02 05:29:25;;;;;;;6.08;3.52;;;;;;;11.38;100.00;101074.95;1728287;83;20972;-75
2021/06/02 05:32:10;;;;;;;6.28;3.92;;;;;;;11.44;100.00;101074.56;1728393;83;21158;-72
2021/06/02 05:35:27;;;;;;;5.70;3.75;;;;;;;11.46;100.00;101079.19;1728646;83;21113;-74
2021/06/02 05:38:37;;;;;;;7.97;3.70;;;;;;;11.45;100.00;101078.00;1728405;83;20936;-76
2021/06/02 05:41:19;;;;;;;5.47;3.50;;;;;;;11.40;100.00;101083.94;1678194;85;20976;-72
2021/06/02 05:44:26;;;;;;;5.33;3.30;;;;;;;11.27;100.00;101083.87;1676973;84;21251;-73
2021/06/02 05:47:27;;;;;;;5.97;3.62;;;;;;;11.21;100.00;101079.05;1722102;83;21047;-78
2021/06/02 05:50:33;;;;;;;6.80;3.60;;;;;;;11.08;100.00;101085.93;1728119;83;21897;-73
2021/06/02 05:53:55;;;;;;;8.88;3.98;;;;;;;10.93;100.00;101076.02;1728223;83;21055;-79
2021/06/02 05:57:16;;;;;;;6.47;4.10;;;;;;;10.74;100.00;101080.66;1735500;82;21003;-74
2021/06/02 06:00:10;;;;;;;8.60;3.85;;;;;;;10.74;100.00;101078.06;1735575;82;21063;-70
2021/06/02 06:03:12;;;;;;;5.25;4.33;;;;;;;10.80;100.00;101081.58;1735543;81;21008;-71
2021/06/02 06:06:05;;;;;;;6.40;4.05;;;;;;;10.90;100.00;101077.52;1690006;83;21127;-74
2021/06/02 06:09:11;;;;;;;7.83;4.03;;;;;;;11.05;100.00;101080.46;1733878;82;20972;-70
2021/06/02 06:12:27;;;;;;;8.73;3.67;;;;;;;11.14;100.00;101081.66;1735435;82;21019;-78
2021/06/02 06:15:20;;;;;;;6.83;3.90;;;;;;;11.23;100.00;101067.28;1735680;81;20916;-72
2021/06/02 06:17:58;;;;;;;5.35;4.28;;;;;;;11.31;100.00;101065.03;1735286;82;21656;-74
2021/06/02 06:21:04;;;;;;;5.17;3.92;;;;;;;11.39;100.00;101071.40;1735203;82;21105;-73
2021/06/02 06:23:54;;;;;;;7.12;4.33;;;;;;;11.45;100.00;101072.80;1735554;82;21027;-70
2021/06/02 06:26:38;;;;;;;9.50;4.10;;;;;;;11.51;100.00;101072.41;1735347;82;21047;-73
2021/06/02 06:29:35;;;;;;;5.37;3.77;;;;;;;11.54;100.00;101069.16;1735654;82;21498;-70
2021/06/02 06:32:03;;;;;;;6.00;3.90;;;;;;;11.64;100.00;101068.95;1706415;84;20972;-76
2021/06/02 06:34:33;;;;;;;6.35;3.85;;;;;;;11.72;100.00;101081.92;1729880;82;21548;-75
2021/06/02 06:37:01;;;;;;;5.45;3.90;;;;;;;11.78;100.00;101075.03;1735617;82;21044;-78
2021/06/02 06:39:52;;;;;;;5.00;3.37;;;;;;;11.82;100.00;101076.52;1666345;84;20901;-72
2021/06/02 06:42:29;;;;;;;5.08;3.62;;;;;;;11.83;100.00;101068.63;1728304;83;21071;-73
2021/06/02 06:45:06;;;;;;;7.08;3.75;;;;;;;11.94;100.00;101070.51;1728002;83;21048;-74
2021/06/02 06:47:34;;;;;;;6.80;3.75;;;;;;;12.08;100.00;101072.59;1720979;83;21060;-72
2021/06/02 06:50:02;;;;;;;5.67;3.50;;;;;;;12.19;100.00;101070.56;1726315;83;21121;-78
2021/06/02 06:52:30;;;;;;;10.55;3.80;;;;;;;12.24;99.73;101072.41;1726446;83;21019;-72
2021/06/02 06:55:01;;;;;;;7.15;3.40;;;;;;;12.28;100.00;101071.28;1726730;83;21028;-79
2021/06/02 06:57:33;;;;;;;5.45;3.62;;;;;;;12.36;99.77;101079.40;1726544;83;21076;-78
2021/06/02 07:00:03;;;;;;;5.47;3.45;;;;;;;12.37;97.93;101077.17;1726739;83;21124;-74
2021/06/02 07:02:31;;;;;;;10.03;3.58;;;;;;;12.38;97.37;101074.11;1726529;83;21079;-76
2021/06/02 07:04:58;;;;;;;7.22;4.20;;;;;;;12.40;96.60;101068.32;1726560;83;21036;-75
2021/06/02 07:07:26;;;;;;;6.55;3.80;;;;;;;12.47;98.41;101074.33;1726470;83;21103;-75
2021/06/02 07:09:53;;;;;;;6.20;3.85;;;;;;;12.55;95.58;101076.39;1726776;83;21147;-76
2021/06/02 07:12:21;;;;;;;7.12;3.80;;;;;;;12.55;92.98;101074.63;1726481;83;21159;-77
2021/06/02 07:14:52;;;;;;;5.97;3.87;;;;;;;12.58;94.01;101067.91;1726637;83;21043;-73
2021/06/02 07:17:23;;;;;;;6.70;3.60;;;;;;;12.65;91.81;101064.42;1720784;83;21608;-75
2021/06/02 07:20:00;;;;;;;7.35;3.45;;;;;;;12.73;92.47;101070.77;1719976;83;21634;-73
2021/06/02 07:22:27;;;;;;;5.97;3.20;;;;;;;12.85;94.50;101064.36;1720094;83;21124;-77
2021/06/02 07:24:56;;;;;;;6.22;3.72;;;;;;;13.02;90.67;101070.52;1720041;83;21097;-78
2021/06/02 07:27:25;;;;;;;5.62;3.42;;;;;;;13.08;86.78;101072.73;1709675;83;21044;-76
2021/06/02 07:29:53;;;;;;;4.20;3.35;;;;;;;13.07;87.08;101075.80;1718523;83;21760;-75
2021/06/02 07:32:21;;;;;;;8.50;4.12;;;;;;;13.04;89.54;101069.97;1716174;83;21300;-74
2021/06/02 07:34:51;;;;;;;8.23;3.47;;;;;;;13.01;89.16;101081.44;1715158;83;21049;-77
2021/06/02 07:37:19;;;;;;;11.48;4.22;;;;;;;12.95;88.35;101079.73;1715083;83;21145;-73
2021/06/02 07:39:48;;;;;;;8.78;3.87;;;;;;;12.94;89.68;101079.35;1715422;83;21100;-80
2021/06/02 07:42:18;;;;;;;4.67;3.08;;;;;;;12.88;87.99;101081.92;1715289;83;21085;-77
2021/06/02 07:44:46;;;;;;;6.90;3.58;;;;;;;12.86;89.04;101090.29;1715199;83;21096;-75
2021/06/02 07:47:14;;;;;;;4.67;3.55;;;;;;;12.84;87.53;101089.57;1715519;83;21053;-77
2021/06/02 07:49:41;;;;;;;9.95;4.67;;;;;;;12.81;85.07;101085.03;1715131;83;21144;-77
2021/06/02 07:52:10;;;;;;;9.00;3.92;;;;;;;12.80;85.85;101088.57;1714967;83;21039;-77
2021/06/02 07:54:38;;;;;;;8.55;3.70;;;;;;;12.80;86.31;101096.38;1715281;83;21112;-77
2021/06/02 07:57:06;;;;;;;6.50;3.42;;;;;;;12.80;86.42;101097.69;1712536;83;21000;-73
2021/06/02 07:59:34;;;;;;;5.70;3.10;;;;;;;12.79;86.53;101090.83;1715075;83;21662;-81
2021/06/02 08:02:02;;;;;;;6.95;2.92;;;;;;;12.81;85.32;101092.84;1715060;82;21767;-79
2021/06/02 08:04:30;;;;;;;5.28;3.33;;;;;;;12.82;86.04;101094.06;1715199;83;21020;-75
2021/06/02 08:06:59;;;;;;;5.47;3.12;;;;;;;12.82;85.47;101103.17;1715492;83;21563;-76
2021/06/02 08:09:28;;;;;;;6.05;3.70;;;;;;;12.85;85.15;101098.22;1715165;83;21098;-76
2021/06/02 08:11:55;;;;;;;5.85;2.77;;;;;;;12.86;85.34;101102.50;1715360;83;21127;-79
2021/06/02 08:14:23;;;;;;;6.30;2.83;;;;;;;12.87;83.59;101099.78;1715164;83;21840;-75
2021/06/02 08:16:51;;;;;;;8.35;3.60;;;;;;;12.90;83.96;101100.87;1715224;82;21617;-78
2021/06/02 08:19:19;;;;;;;3.83;2.77;;;;;;;12.93;83.75;101109.77;1715313;83;21148;-74
2021/06/02 08:21:47;;;;;;;4.62;2.87;;;;;;;12.98;83.85;101112.08;1715214;83;21049;-73
2021/06/02 08:24:14;;;;;;;4.90;3.00;;;;;;;13.03;84.47;101116.02;1715381;83;21085;-73
2021/06/02 08:26:45;;;;;;;4.80;2.83;;;;;;;13.06;84.07;101114.51;1715180;83;21116;-78
2021/06/02 08:29:12;;;;;;;4.87;3.17;;;;;;;13.09;83.57;101119.53;1715081;83;21064;-74
2021/06/02 08:31:41;;;;;;;6.62;3.10;;;;;;;13.11;85.18;101115.05;1715196;83;20977;-72
2021/06/02 08:34:08;;;;;;;9.13;3.42;;;;;;;13.14;84.17;101116.62;1715262;83;21116;-73
2021/06/02 08:36:37;;;;;;;5.80;3.40;;;;;;;13.14;84.42;101116.16;1715280;83;21244;-80
2021/06/02 08:39:07;;;;;;;7.85;3.55;;;;;;;13.16;84.19;101117.34;1715106;83;21116;-76
2021/06/02 08:41:40;;;;;;;5.05;3.35;;;;;;;13.14;83.86;101121.84;1715615;83;21021;-73
2021/06/02 08:44:22;;;;;;;7.35;3.52;;;;;;;13.13;83.31;101126.67;1714965;83;21120;-77
2021/06/02 08:46:55;;;;;;;4.75;3.17;;;;;;;13.09;82.41;101126.05;1713077;83;21025;-75
2021/06/02 08:49:24;;;;;;;6.53;3.10;;;;;;;13.10;83.96;101130.80;1715564;83;21037;-71
2021/06/02 08:51:53;;;;;;;6.83;3.20;;;;;;;13.10;82.86;101129.49;1715110;83;21061;-73
2021/06/02 08:54:24;;;;;;;6.25;3.83;;;;;;;13.09;83.90;101131.27;1715017;83;21653;-77
2021/06/02 08:56:52;;;;;;;3.85;3.00;;;;;;;13.05;85.56;101136.28;1715045;83;21379;-76
2021/06/02 08:59:20;;;;;;;3.85;2.85;;;;;;;12.98;84.83;101138.97;1715361;83;21990;-75
2021/06/02 09:01:50;;;;;;;4.37;3.62;;;;;;;12.95;85.60;101137.03;1715140;83;21123;-75
2021/06/02 09:04:20;;;;;;;7.42;3.47;;;;;;;12.95;85.64;101131.36;1715305;83;21012;-75
2021/06/02 09:06:48;;;;;;;4.65;3.52;;;;;;;13.05;86.03;101131.56;1715453;83;20961;-73
2021/06/02 09:09:16;;;;;;;4.33;3.60;;;;;;;13.13;84.87;101129.28;1715812;83;20933;-74
2021/06/02 09:11:51;;;;;;;5.10;3.27;;;;;;;13.23;85.63;101127.70;1715028;83;21152;-77
2021/06/02 09:14:37;;;;;;;4.40;3.50;;;;;;;13.34;85.10;101125.67;1715333;83;21064;-73
2021/06/02 09:17:06;;;;;;;4.60;3.08;;;;;;;13.43;86.47;101127.16;1715193;83;21112;-78
2021/06/02 09:19:44;;;;;;;7.37;3.52;;;;;;;13.52;86.26;101125.20;1714768;83;21118;-74
2021/06/02 09:22:20;;;;;;;4.42;3.87;;;;;;;13.51;85.97;101126.13;1715318;83;21073;-72
2021/06/02 09:25:35;;;;;;;9.33;3.70;;;;;;;13.40;87.18;101128.65;1813707;79;22460;-81
2021/06/02 09:28:03;;;;;;;4.53;3.33;;;;;;;13.25;86.57;101128.42;1786799;80;21553;-72
2021/06/02 09:30:34;;;;;;;6.90;3.47;;;;;;;13.27;88.04;101129.64;1786799;80;21111;-73
2021/06/02 09:33:02;;;;;;;6.42;3.40;;;;;;;13.38;88.75;101138.83;1786998;80;20990;-77
2021/06/02 09:35:42;;;;;;;6.92;4.03;;;;;;;13.46;88.19;101130.02;1752020;81;21538;-75
2021/06/02 09:38:23;;;;;;;7.50;4.10;;;;;;;13.54;87.38;101134.20;1734657;82;20960;-80
2021/06/02 09:40:56;;;;;;;;;;;;;;;13.63;87.53;101135.69;1721388;83;21054;-77
2021/06/02 09:43:33;;;;;;;5.22;3.77;;;;;;;13.80;89.23;101134.48;1752184;81;21199;-78
2021/06/02 09:46:06;;;;;;;6.10;2.98;;;;;;;13.90;85.63;101137.27;1752064;81;21018;-80
2021/06/02 09:48:52;;;;;;;6.60;3.05;;;;;;;13.87;82.57;101134.88;1752126;80;20998;-75
2021/06/02 09:51:39;;;;;;;4.70;3.30;;;;;;;13.92;83.68;101139.28;1752477;81;21054;-76
2021/06/02 09:54:09;;;;;;;4.22;3.20;;;;;;;13.98;83.11;101133.62;1752140;81;21055;-78
2021/06/02 09:56:43;;;;;;;5.40;3.40;;;;;;;13.99;80.06;101133.98;1752573;81;21098;-76
2021/06/02 09:59:12;;;;;;;5.97;3.40;;;;;;;14.03;81.35;101132.83;1747196;81;21875;-79
2021/06/02 10:01:51;;;;;;;4.40;3.30;;;;;;;14.12;80.85;101126.94;1736301;81;21671;-76
2021/06/02 10:04:20;;;;;;;5.53;3.50;;;;;;;14.31;82.04;101137.69;1739151;81;20978;-76
2021/06/02 10:06:47;;;;;;;6.10;3.98;;;;;;;14.42;80.74;101136.94;1722099;81;21049;-78
2021/06/02 10:09:16;;;;;;;8.63;3.60;;;;;;;14.35;82.21;101138.33;1752275;81;21560;-73
2021/06/02 10:12:00;;;;;;;5.15;3.55;;;;;;;14.11;83.99;101141.76;1734671;81;20983;-75
2021/06/02 10:14:28;;;;;;;5.83;3.95;;;;;;;13.93;85.66;101139.19;1697937;83;20951;-72
2021/06/02 10:16:57;;;;;;;5.30;3.33;;;;;;;13.85;84.57;101134.98;1721817;83;20939;-72
2021/06/02 10:19:42;;;;;;;7.15;3.50;;;;;;;13.81;85.82;101128.80;1722197;83;21521;-73
2021/06/02 10:22:32;;;;;;;4.22;3.55;;;;;;;13.64;86.21;101134.75;1729157;81;21154;-76
2021/06/02 10:25:07;;;;;;;6.95;4.35;;;;;;;13.33;89.96;101145.69;1745870;81;22329;-76
2021/06/02 10:27:35;;;;;;;4.20;3.70;;;;;;;13.20;91.11;101148.31;1713861;83;20896;-76
2021/06/02 10:30:06;;;;;;;3.77;3.20;;;;;;;13.17;90.56;101152.43;1781132;80;21069;-73
2021/06/02 10:32:35;;;;;;;8.10;4.12;;;;;;;13.18;90.95;101152.77;1782010;80;21513;-76
2021/06/02 10:35:07;;;;;;;7.40;3.90;;;;;;;13.19;90.56;101155.75;1781333;80;21764;-76
2021/06/02 10:37:41;;;;;;;4.85;2.80;;;;;;;13.22;90.56;101158.61;1781069;80;21034;-74
2021/06/02 10:40:14;;;;;;;8.15;3.85;;;;;;;13.27;91.21;101160.45;1752579;80;20963;-73
2021/06/02 10:43:09;;;;;;;8.83;3.60;;;;;;;13.34;90.81;101160.36;1780018;80;21016;-78
2021/06/02 10:45:46;;;;;;;9.28;3.65;;;;;;;13.39;88.76;101167.88;1750728;80;21037;-76
2021/06/02 10:48:14;;;;;;;9.68;4.53;;;;;;;13.38;87.71;101172.72;1781162;80;21146;-74
2021/06/02 10:50:44;;;;;;;4.72;3.42;;;;;;;13.35;88.34;101174.23;1780994;80;20990;-77
2021/06/02 10:53:24;;;;;;;9.48;3.00;;;;;;;13.34;87.53;101167.38;1780336;80;21006;-75
2021/06/02 10:56:01;;;;;;;8.03;4.03;;;;;;;13.31;86.34;101167.55;1781113;80;21131;-75
2021/06/02 10:58:47;;;;;;;10.18;4.08;;;;;;;13.32;87.04;101173.14;1781054;80;20987;-78
2021/06/02 11:01:20;;;;;;;4.12;3.62;;;;;;;13.30;86.95;101167.22;1750588;80;21157;-74
2021/06/02 11:04:11;;;;;;;6.12;3.72;;;;;;;13.27;88.40;101181.30;1780918;80;20919;-75
2021/06/02 11:06:42;;;;;;;5.55;3.40;;;;;;;13.24;88.74;101179.71;1781542;80;21002;-75
2021/06/02 11:09:16;;;;;;;5.10;3.35;;;;;;;13.21;88.06;101186.91;1781759;80;21062;-76
2021/06/02 11:11:47;;;;;;;5.47;3.30;;;;;;;13.17;89.03;101197.20;1781619;79;21054;-75
2021/06/02 11:14:19;;;;;;;4.53;3.20;;;;;;;13.14;89.59;101194.80;1792414;79;21419;-77
2021/06/02 11:17:00;;;;;;;7.95;3.45;;;;;;;13.16;89.40;101198.97;1781350;80;20979;-75
2021/06/02 11:19:41;;;;;;;8.98;3.33;;;;;;;13.21;89.10;101207.29;1781166;80;20975;-74
2021/06/02 11:22:13;;;;;;;9.68;3.92;;;;;;;13.25;88.42;101202.23;1781199;80;20900;-73
2021/06/02 11:24:42;;;;;;;6.35;3.17;;;;;;;13.29;88.30;101211.99;1741867;80;21046;-72
2021/06/02 11:27:18;;;;;;;12.18;4.95;;;;;;;13.32;88.01;101211.78;1750867;81;21119;-74
2021/06/02 11:29:58;;;;;;;9.53;4.37;;;;;;;13.30;87.75;101214.13;1750638;81;21003;-76
2021/06/02 11:32:31;;;;;;;4.22;3.65;;;;;;;13.28;88.67;101215.99;1750337;81;21515;-77
2021/06/02 11:35:06;;;;;;;4.00;3.10;;;;;;;13.13;89.24;101225.23;1750681;81;21068;-76
2021/06/02 11:37:35;;;;;;;6.62;3.42;;;;;;;12.96;91.88;101215.53;1750475;81;21069;-75
2021/06/02 11:40:11;;;;;;;4.30;2.90;;;;;;;12.78;93.68;101218.07;1750279;82;21174;-73
2021/06/02 11:42:44;;;;;;;4.45;3.22;;;;;;;12.73;94.66;101215.79;1750253;82;21795;-74
2021/06/02 11:45:17;;;;;;;5.17;2.70;;;;;;;12.75;94.61;101219.11;1749981;81;22244;-74
2021/06/02 11:47:48;;;;;;;3.42;2.67;;;;;;;12.90;93.24;101221.99;1750277;82;21027;-76
2021/06/02 11:50:18;;;;;;;3.90;2.98;;;;;;;13.07;90.81;101218.27;1750653;81;21051;-74
2021/06/02 11:52:48;;;;;;;6.00;3.20;;;;;;;13.20;89.49;101217.38;1741518;80;21135;-78
2021/06/02 11:55:16;;;;;;;4.92;3.30;;;;;;;13.24;84.33;101224.52;1723734;81;21022;-74
2021/06/02 11:57:44;;;;;;;8.88;3.33;;;;;;;13.26;84.58;101218.72;1720436;82;21027;-81
2021/06/02 12:00:14;;;;;;;8.93;3.35;;;;;;;13.22;85.84;101222.46;1732188;80;20976;-74
2021/06/02 12:02:41;;;;;;;3.95;3.20;;;;;;;13.13;87.14;101212.67;1750105;82;21540;-76
2021/06/02 12:05:24;;;;;;;4.08;2.90;;;;;;;12.80;90.40;101216.19;1750489;81;21111;-75
2021/06/02 12:07:56;;;;;;;7.50;3.55;;;;;;;12.55;95.04;101219.11;1750340;81;21585;-72
2021/06/02 12:10:38;;;;;;;5.75;3.17;;;;;;;12.36;97.63;101222.55;1750634;81;20955;-79
2021/06/02 12:13:13;;;;;;;7.58;3.55;;;;;;;12.12;98.90;101218.92;1750137;81;21003;-77
2021/06/02 12:15:56;;;;;;;6.67;3.67;;;;;;;11.84;100.00;101227.59;1731512;82;21588;-70
2021/06/02 12:18:38;;;;;;;4.50;3.22;;;;;;;11.66;100.00;101228.25;1750396;81;21099;-74